Denali Natl Park, Alaska
Current Conditions -  °F | °C
As of 6:16 PM on Wednesday 22 Oct 2014 (Local Time) from PAIN Reporting Station
Overcast Overcast  
Wind Chill: 15°   Ceiling: 600
Heat Index: 25°   Visibility: 5mi
Dew Point: 25°   Wind: 10mph
Humidity: 100%   Direction: 360°N
Pressure: 29.57"   Gusts: NA
Location:  63.59°N, 151.34°W
Report Text: PAIN 230216Z AUTO 36009KT 5SM OVC006 M04/M04 A2957 RMK AO1
Loading
Personal Weather Stations






























Interactive Weather Map
Tropical Storm Tracking
New forecast layout! Learn more

10-Day Weather Forecast

Advertisements
Track Severe Weather on mobile